sensor_id;sensor_type;location;lat;lon;timestamp;P1;durP1;ratioP1;P2;durP2;ratioP2
4432;SDS011;2229;48.708;9.706;2022-07-30T00:01:40;4.63;;;2.57;;
4432;SDS011;2229;48.708;9.706;2022-07-30T00:04:07;3.70;;;2.67;;
4432;SDS011;2229;48.708;9.706;2022-07-30T00:06:34;3.13;;;2.00;;
4432;SDS011;2229;48.708;9.706;2022-07-30T00:09:02;3.50;;;2.93;;
4432;SDS011;2229;48.708;9.706;2022-07-30T00:11:28;4.10;;;2.90;;
4432;SDS011;2229;48.708;9.706;2022-07-30T00:13:55;4.40;;;1.97;;
4432;SDS011;2229;48.708;9.706;2022-07-30T00:16:22;3.37;;;2.27;;
4432;SDS011;2229;48.708;9.706;2022-07-30T00:18:49;5.27;;;2.90;;
4432;SDS011;2229;48.708;9.706;2022-07-30T00:21:15;6.10;;;2.97;;
4432;SDS011;2229;48.708;9.706;2022-07-30T00:23:42;2.97;;;2.07;;
4432;SDS011;2229;48.708;9.706;2022-07-30T00:26:08;3.57;;;2.33;;
4432;SDS011;2229;48.708;9.706;2022-07-30T00:28:35;5.27;;;2.30;;
4432;SDS011;2229;48.708;9.706;2022-07-30T00:31:02;4.37;;;2.53;;
4432;SDS011;2229;48.708;9.706;2022-07-30T00:33:28;4.10;;;3.00;;
4432;SDS011;2229;48.708;9.706;2022-07-30T00:35:55;3.87;;;2.30;;
4432;SDS011;2229;48.708;9.706;2022-07-30T00:38:21;3.50;;;2.37;;
4432;SDS011;2229;48.708;9.706;2022-07-30T00:40:48;7.63;;;3.20;;
4432;SDS011;2229;48.708;9.706;2022-07-30T00:43:14;6.17;;;2.70;;
4432;SDS011;2229;48.708;9.706;2022-07-30T00:45:42;4.73;;;2.40;;
4432;SDS011;2229;48.708;9.706;2022-07-30T00:48:10;3.23;;;2.43;;
4432;SDS011;2229;48.708;9.706;2022-07-30T00:50:37;3.17;;;2.17;;
4432;SDS011;2229;48.708;9.706;2022-07-30T00:53:04;5.67;;;3.40;;
4432;SDS011;2229;48.708;9.706;2022-07-30T00:55:31;3.00;;;2.40;;
4432;SDS011;2229;48.708;9.706;2022-07-30T00:57:58;3.03;;;2.20;;
4432;SDS011;2229;48.708;9.706;2022-07-30T01:00:25;4.57;;;2.77;;
4432;SDS011;2229;48.708;9.706;2022-07-30T01:02:51;2.83;;;1.93;;
4432;SDS011;2229;48.708;9.706;2022-07-30T01:05:19;5.23;;;2.87;;
4432;SDS011;2229;48.708;9.706;2022-07-30T01:07:45;4.00;;;2.73;;
4432;SDS011;2229;48.708;9.706;2022-07-30T01:10:12;3.60;;;2.40;;
4432;SDS011;2229;48.708;9.706;2022-07-30T01:12:40;3.10;;;1.97;;
4432;SDS011;2229;48.708;9.706;2022-07-30T01:15:08;3.00;;;1.90;;
4432;SDS011;2229;48.708;9.706;2022-07-30T01:17:35;6.20;;;2.70;;
4432;SDS011;2229;48.708;9.706;2022-07-30T01:20:03;2.97;;;2.03;;
4432;SDS011;2229;48.708;9.706;2022-07-30T01:22:40;4.03;;;2.50;;
4432;SDS011;2229;48.708;9.706;2022-07-30T01:25:14;5.20;;;2.70;;
4432;SDS011;2229;48.708;9.706;2022-07-30T01:27:46;5.83;;;2.53;;
4432;SDS011;2229;48.708;9.706;2022-07-30T01:30:16;3.87;;;2.43;;
4432;SDS011;2229;48.708;9.706;2022-07-30T01:32:44;4.77;;;2.60;;
4432;SDS011;2229;48.708;9.706;2022-07-30T01:35:12;2.90;;;2.60;;
4432;SDS011;2229;48.708;9.706;2022-07-30T01:37:41;6.00;;;2.90;;
4432;SDS011;2229;48.708;9.706;2022-07-30T01:40:10;6.50;;;2.80;;
4432;SDS011;2229;48.708;9.706;2022-07-30T01:42:39;2.80;;;2.30;;
4432;SDS011;2229;48.708;9.706;2022-07-30T01:45:07;6.50;;;2.50;;
4432;SDS011;2229;48.708;9.706;2022-07-30T01:47:36;4.20;;;2.20;;
4432;SDS011;2229;48.708;9.706;2022-07-30T01:50:06;3.50;;;2.23;;
4432;SDS011;2229;48.708;9.706;2022-07-30T01:52:38;2.83;;;2.23;;
4432;SDS011;2229;48.708;9.706;2022-07-30T01:55:06;4.13;;;2.33;;
4432;SDS011;2229;48.708;9.706;2022-07-30T01:57:37;3.70;;;2.33;;
4432;SDS011;2229;48.708;9.706;2022-07-30T02:00:05;3.77;;;2.70;;
4432;SDS011;2229;48.708;9.706;2022-07-30T02:02:43;2.63;;;2.20;;
4432;SDS011;2229;48.708;9.706;2022-07-30T02:05:11;3.10;;;2.30;;
4432;SDS011;2229;48.708;9.706;2022-07-30T02:07:41;6.27;;;2.53;;
4432;SDS011;2229;48.708;9.706;2022-07-30T02:10:14;4.17;;;2.67;;
4432;SDS011;2229;48.708;9.706;2022-07-30T02:12:47;4.40;;;2.70;;
4432;SDS011;2229;48.708;9.706;2022-07-30T02:15:21;4.17;;;2.43;;
4432;SDS011;2229;48.708;9.706;2022-07-30T02:17:53;3.40;;;2.40;;
4432;SDS011;2229;48.708;9.706;2022-07-30T02:20:25;3.00;;;2.17;;
4432;SDS011;2229;48.708;9.706;2022-07-30T02:22:56;3.40;;;2.60;;
4432;SDS011;2229;48.708;9.706;2022-07-30T02:25:26;3.80;;;2.63;;
4432;SDS011;2229;48.708;9.706;2022-07-30T02:27:57;3.23;;;1.83;;
4432;SDS011;2229;48.708;9.706;2022-07-30T02:30:29;3.90;;;2.80;;
4432;SDS011;2229;48.708;9.706;2022-07-30T02:33:00;3.93;;;2.20;;
4432;SDS011;2229;48.708;9.706;2022-07-30T02:35:30;16.73;;;3.00;;
4432;SDS011;2229;48.708;9.706;2022-07-30T02:37:59;6.33;;;2.97;;
4432;SDS011;2229;48.708;9.706;2022-07-30T02:40:29;4.83;;;2.40;;
4432;SDS011;2229;48.708;9.706;2022-07-30T02:42:55;2.90;;;2.20;;
4432;SDS011;2229;48.708;9.706;2022-07-30T02:45:25;5.70;;;2.77;;
4432;SDS011;2229;48.708;9.706;2022-07-30T02:47:56;11.63;;;2.97;;
4432;SDS011;2229;48.708;9.706;2022-07-30T02:50:25;3.70;;;2.57;;
4432;SDS011;2229;48.708;9.706;2022-07-30T02:52:53;3.30;;;1.90;;
4432;SDS011;2229;48.708;9.706;2022-07-30T02:55:21;3.40;;;2.33;;
4432;SDS011;2229;48.708;9.706;2022-07-30T02:57:50;6.10;;;3.10;;
4432;SDS011;2229;48.708;9.706;2022-07-30T03:00:18;2.97;;;2.33;;
4432;SDS011;2229;48.708;9.706;2022-07-30T03:02:46;6.50;;;2.30;;
4432;SDS011;2229;48.708;9.706;2022-07-30T03:05:14;1.80;;;1.57;;
4432;SDS011;2229;48.708;9.706;2022-07-30T03:07:41;2.97;;;1.80;;
4432;SDS011;2229;48.708;9.706;2022-07-30T03:10:09;3.40;;;2.33;;
4432;SDS011;2229;48.708;9.706;2022-07-30T03:12:37;2.83;;;2.10;;
4432;SDS011;2229;48.708;9.706;2022-07-30T03:15:05;4.87;;;3.00;;
4432;SDS011;2229;48.708;9.706;2022-07-30T03:17:34;6.63;;;3.40;;
4432;SDS011;2229;48.708;9.706;2022-07-30T03:20:04;7.40;;;4.17;;
4432;SDS011;2229;48.708;9.706;2022-07-30T03:22:35;4.43;;;2.60;;
4432;SDS011;2229;48.708;9.706;2022-07-30T03:25:07;2.90;;;2.30;;
4432;SDS011;2229;48.708;9.706;2022-07-30T03:27:35;5.27;;;2.73;;
4432;SDS011;2229;48.708;9.706;2022-07-30T03:30:03;3.63;;;2.77;;
4432;SDS011;2229;48.708;9.706;2022-07-30T03:32:31;4.20;;;3.27;;
4432;SDS011;2229;48.708;9.706;2022-07-30T03:34:59;4.97;;;3.20;;
4432;SDS011;2229;48.708;9.706;2022-07-30T03:37:26;7.63;;;2.77;;
4432;SDS011;2229;48.708;9.706;2022-07-30T03:39:54;5.70;;;2.80;;
4432;SDS011;2229;48.708;9.706;2022-07-30T03:42:22;4.93;;;2.83;;
4432;SDS011;2229;48.708;9.706;2022-07-30T03:44:50;5.70;;;2.60;;
4432;SDS011;2229;48.708;9.706;2022-07-30T03:47:19;4.83;;;2.90;;
4432;SDS011;2229;48.708;9.706;2022-07-30T03:49:48;3.50;;;2.27;;
4432;SDS011;2229;48.708;9.706;2022-07-30T03:52:15;2.90;;;2.17;;
4432;SDS011;2229;48.708;9.706;2022-07-30T03:54:44;4.77;;;2.60;;
4432;SDS011;2229;48.708;9.706;2022-07-30T03:57:31;3.77;;;2.90;;
4432;SDS011;2229;48.708;9.706;2022-07-30T03:59:58;4.33;;;2.77;;
4432;SDS011;2229;48.708;9.706;2022-07-30T04:02:25;5.30;;;2.40;;
4432;SDS011;2229;48.708;9.706;2022-07-30T04:05:17;3.63;;;2.57;;
4432;SDS011;2229;48.708;9.706;2022-07-30T04:07:45;3.27;;;2.40;;
4432;SDS011;2229;48.708;9.706;2022-07-30T04:10:14;3.70;;;2.50;;
4432;SDS011;2229;48.708;9.706;2022-07-30T04:13:10;5.20;;;3.00;;
4432;SDS011;2229;48.708;9.706;2022-07-30T04:15:40;5.40;;;3.40;;
4432;SDS011;2229;48.708;9.706;2022-07-30T04:18:11;6.00;;;2.63;;
4432;SDS011;2229;48.708;9.706;2022-07-30T04:20:40;4.27;;;2.97;;
4432;SDS011;2229;48.708;9.706;2022-07-30T04:23:14;4.90;;;2.70;;
4432;SDS011;2229;48.708;9.706;2022-07-30T04:25:42;2.47;;;2.07;;
4432;SDS011;2229;48.708;9.706;2022-07-30T04:28:09;4.10;;;2.53;;
4432;SDS011;2229;48.708;9.706;2022-07-30T04:30:38;6.37;;;2.83;;
4432;SDS011;2229;48.708;9.706;2022-07-30T04:33:06;5.10;;;3.03;;
4432;SDS011;2229;48.708;9.706;2022-07-30T04:35:53;4.20;;;2.67;;
4432;SDS011;2229;48.708;9.706;2022-07-30T04:38:30;3.13;;;2.13;;
4432;SDS011;2229;48.708;9.706;2022-07-30T04:40:57;7.90;;;2.37;;
4432;SDS011;2229;48.708;9.706;2022-07-30T04:43:26;5.97;;;2.90;;
4432;SDS011;2229;48.708;9.706;2022-07-30T04:45:53;3.90;;;2.60;;
4432;SDS011;2229;48.708;9.706;2022-07-30T04:48:19;4.10;;;2.33;;
4432;SDS011;2229;48.708;9.706;2022-07-30T04:51:07;3.17;;;2.43;;
4432;SDS011;2229;48.708;9.706;2022-07-30T04:53:37;3.87;;;2.20;;
4432;SDS011;2229;48.708;9.706;2022-07-30T04:56:06;3.97;;;2.73;;
4432;SDS011;2229;48.708;9.706;2022-07-30T04:58:34;4.80;;;2.80;;
4432;SDS011;2229;48.708;9.706;2022-07-30T05:01:02;7.20;;;3.63;;
4432;SDS011;2229;48.708;9.706;2022-07-30T05:03:30;4.13;;;2.87;;
4432;SDS011;2229;48.708;9.706;2022-07-30T05:05:59;2.87;;;2.20;;
4432;SDS011;2229;48.708;9.706;2022-07-30T05:08:30;4.00;;;2.27;;
4432;SDS011;2229;48.708;9.706;2022-07-30T05:11:01;5.93;;;2.73;;
4432;SDS011;2229;48.708;9.706;2022-07-30T05:13:27;2.80;;;2.13;;
4432;SDS011;2229;48.708;9.706;2022-07-30T05:15:55;3.30;;;2.40;;
4432;SDS011;2229;48.708;9.706;2022-07-30T05:18:22;7.67;;;3.13;;
4432;SDS011;2229;48.708;9.706;2022-07-30T05:20:49;3.70;;;2.27;;
4432;SDS011;2229;48.708;9.706;2022-07-30T05:23:26;2.80;;;2.33;;
4432;SDS011;2229;48.708;9.706;2022-07-30T05:26:03;5.90;;;2.20;;
4432;SDS011;2229;48.708;9.706;2022-07-30T05:28:35;3.27;;;2.40;;
4432;SDS011;2229;48.708;9.706;2022-07-30T05:31:06;3.60;;;2.37;;
4432;SDS011;2229;48.708;9.706;2022-07-30T05:33:32;3.43;;;2.20;;
4432;SDS011;2229;48.708;9.706;2022-07-30T05:35:59;2.57;;;1.33;;
4432;SDS011;2229;48.708;9.706;2022-07-30T05:38:26;2.70;;;2.30;;
4432;SDS011;2229;48.708;9.706;2022-07-30T05:41:11;3.23;;;2.30;;
4432;SDS011;2229;48.708;9.706;2022-07-30T05:44:03;4.13;;;3.00;;
4432;SDS011;2229;48.708;9.706;2022-07-30T05:46:30;2.47;;;1.77;;
4432;SDS011;2229;48.708;9.706;2022-07-30T05:48:58;2.80;;;2.00;;
4432;SDS011;2229;48.708;9.706;2022-07-30T05:51:24;5.90;;;2.17;;
4432;SDS011;2229;48.708;9.706;2022-07-30T05:53:51;3.83;;;2.60;;
4432;SDS011;2229;48.708;9.706;2022-07-30T05:56:43;4.10;;;2.43;;
4432;SDS011;2229;48.708;9.706;2022-07-30T05:59:13;4.03;;;2.60;;
4432;SDS011;2229;48.708;9.706;2022-07-30T06:02:02;4.87;;;2.47;;
4432;SDS011;2229;48.708;9.706;2022-07-30T06:04:49;3.73;;;1.90;;
4432;SDS011;2229;48.708;9.706;2022-07-30T06:07:16;3.33;;;2.27;;
4432;SDS011;2229;48.708;9.706;2022-07-30T06:09:42;4.60;;;2.90;;
4432;SDS011;2229;48.708;9.706;2022-07-30T06:12:09;3.63;;;2.10;;
4432;SDS011;2229;48.708;9.706;2022-07-30T06:14:36;8.13;;;2.40;;
4432;SDS011;2229;48.708;9.706;2022-07-30T06:17:05;4.07;;;1.90;;
4432;SDS011;2229;48.708;9.706;2022-07-30T06:19:54;3.87;;;2.67;;
4432;SDS011;2229;48.708;9.706;2022-07-30T06:22:27;4.07;;;2.40;;
4432;SDS011;2229;48.708;9.706;2022-07-30T06:24:56;5.93;;;3.33;;
4432;SDS011;2229;48.708;9.706;2022-07-30T06:27:25;5.60;;;3.07;;
4432;SDS011;2229;48.708;9.706;2022-07-30T06:29:52;3.33;;;2.20;;
4432;SDS011;2229;48.708;9.706;2022-07-30T06:32:20;4.80;;;2.33;;
4432;SDS011;2229;48.708;9.706;2022-07-30T06:34:50;2.90;;;2.10;;
4432;SDS011;2229;48.708;9.706;2022-07-30T06:37:16;4.80;;;2.90;;
4432;SDS011;2229;48.708;9.706;2022-07-30T06:39:46;4.17;;;2.23;;
4432;SDS011;2229;48.708;9.706;2022-07-30T06:42:28;4.47;;;3.07;;
4432;SDS011;2229;48.708;9.706;2022-07-30T06:45:14;3.37;;;2.27;;
4432;SDS011;2229;48.708;9.706;2022-07-30T06:48:04;4.53;;;3.20;;
4432;SDS011;2229;48.708;9.706;2022-07-30T06:50:31;7.23;;;3.37;;
4432;SDS011;2229;48.708;9.706;2022-07-30T06:52:58;6.10;;;3.53;;
4432;SDS011;2229;48.708;9.706;2022-07-30T06:55:31;6.87;;;4.00;;
4432;SDS011;2229;48.708;9.706;2022-07-30T06:58:00;5.87;;;2.80;;
4432;SDS011;2229;48.708;9.706;2022-07-30T07:00:49;9.83;;;3.33;;
4432;SDS011;2229;48.708;9.706;2022-07-30T07:03:17;5.07;;;3.63;;
4432;SDS011;2229;48.708;9.706;2022-07-30T07:05:43;5.60;;;3.27;;
4432;SDS011;2229;48.708;9.706;2022-07-30T07:08:11;4.40;;;2.77;;
4432;SDS011;2229;48.708;9.706;2022-07-30T07:10:42;8.67;;;3.67;;
4432;SDS011;2229;48.708;9.706;2022-07-30T07:13:16;4.80;;;3.40;;
4432;SDS011;2229;48.708;9.706;2022-07-30T07:15:43;8.63;;;3.20;;
4432;SDS011;2229;48.708;9.706;2022-07-30T07:18:15;5.13;;;2.60;;
4432;SDS011;2229;48.708;9.706;2022-07-30T07:21:27;4.80;;;2.87;;
4432;SDS011;2229;48.708;9.706;2022-07-30T07:23:54;3.10;;;2.60;;
4432;SDS011;2229;48.708;9.706;2022-07-30T07:26:43;9.43;;;3.63;;
4432;SDS011;2229;48.708;9.706;2022-07-30T07:29:10;3.63;;;2.70;;
4432;SDS011;2229;48.708;9.706;2022-07-30T07:31:37;5.00;;;2.90;;
4432;SDS011;2229;48.708;9.706;2022-07-30T07:34:03;8.47;;;4.33;;
4432;SDS011;2229;48.708;9.706;2022-07-30T07:36:30;6.53;;;3.60;;
4432;SDS011;2229;48.708;9.706;2022-07-30T07:38:58;4.10;;;2.37;;
4432;SDS011;2229;48.708;9.706;2022-07-30T07:41:25;3.87;;;2.60;;
4432;SDS011;2229;48.708;9.706;2022-07-30T07:43:51;4.27;;;2.70;;
4432;SDS011;2229;48.708;9.706;2022-07-30T07:46:25;5.23;;;3.40;;
4432;SDS011;2229;48.708;9.706;2022-07-30T07:48:51;6.53;;;3.27;;
4432;SDS011;2229;48.708;9.706;2022-07-30T07:51:29;4.30;;;2.77;;
4432;SDS011;2229;48.708;9.706;2022-07-30T07:53:56;5.23;;;2.50;;
4432;SDS011;2229;48.708;9.706;2022-07-30T07:56:24;4.50;;;2.63;;
4432;SDS011;2229;48.708;9.706;2022-07-30T07:58:51;3.00;;;2.00;;
4432;SDS011;2229;48.708;9.706;2022-07-30T08:01:19;6.13;;;2.57;;
4432;SDS011;2229;48.708;9.706;2022-07-30T08:04:04;4.97;;;3.43;;
4432;SDS011;2229;48.708;9.706;2022-07-30T08:06:50;4.17;;;2.80;;
4432;SDS011;2229;48.708;9.706;2022-07-30T08:09:35;3.23;;;2.07;;
4432;SDS011;2229;48.708;9.706;2022-07-30T08:12:09;4.20;;;2.30;;
4432;SDS011;2229;48.708;9.706;2022-07-30T08:15:05;5.57;;;2.27;;
4432;SDS011;2229;48.708;9.706;2022-07-30T08:17:52;3.37;;;2.23;;
4432;SDS011;2229;48.708;9.706;2022-07-30T08:20:30;2.13;;;1.70;;
4432;SDS011;2229;48.708;9.706;2022-07-30T08:22:58;4.53;;;2.07;;
4432;SDS011;2229;48.708;9.706;2022-07-30T08:25:25;2.47;;;1.50;;
4432;SDS011;2229;48.708;9.706;2022-07-30T08:27:52;3.67;;;1.40;;
4432;SDS011;2229;48.708;9.706;2022-07-30T08:30:19;4.23;;;2.40;;
4432;SDS011;2229;48.708;9.706;2022-07-30T08:32:46;3.10;;;1.97;;
4432;SDS011;2229;48.708;9.706;2022-07-30T08:35:12;8.23;;;2.87;;
4432;SDS011;2229;48.708;9.706;2022-07-30T08:37:39;3.40;;;2.17;;
4432;SDS011;2229;48.708;9.706;2022-07-30T08:40:08;7.20;;;2.37;;
4432;SDS011;2229;48.708;9.706;2022-07-30T08:42:44;3.03;;;1.80;;
4432;SDS011;2229;48.708;9.706;2022-07-30T08:45:13;3.20;;;2.00;;
4432;SDS011;2229;48.708;9.706;2022-07-30T08:47:43;4.43;;;1.87;;
4432;SDS011;2229;48.708;9.706;2022-07-30T08:50:10;3.80;;;2.50;;
4432;SDS011;2229;48.708;9.706;2022-07-30T08:52:57;6.40;;;1.87;;
4432;SDS011;2229;48.708;9.706;2022-07-30T08:55:26;2.13;;;1.73;;
4432;SDS011;2229;48.708;9.706;2022-07-30T08:57:53;2.03;;;1.10;;
4432;SDS011;2229;48.708;9.706;2022-07-30T09:00:20;1.33;;;0.97;;
4432;SDS011;2229;48.708;9.706;2022-07-30T09:02:48;2.67;;;1.63;;
4432;SDS011;2229;48.708;9.706;2022-07-30T09:05:15;4.73;;;1.57;;
4432;SDS011;2229;48.708;9.706;2022-07-30T09:07:42;2.60;;;1.10;;
4432;SDS011;2229;48.708;9.706;2022-07-30T09:10:13;3.30;;;1.83;;
4432;SDS011;2229;48.708;9.706;2022-07-30T09:12:42;4.27;;;1.67;;
4432;SDS011;2229;48.708;9.706;2022-07-30T09:15:10;3.97;;;1.87;;
4432;SDS011;2229;48.708;9.706;2022-07-30T09:17:46;6.97;;;2.50;;
4432;SDS011;2229;48.708;9.706;2022-07-30T09:20:15;5.03;;;2.20;;
4432;SDS011;2229;48.708;9.706;2022-07-30T09:22:42;1.83;;;1.30;;
4432;SDS011;2229;48.708;9.706;2022-07-30T09:25:43;4.50;;;1.80;;
4432;SDS011;2229;48.708;9.706;2022-07-30T09:28:37;3.20;;;1.30;;
4432;SDS011;2229;48.708;9.706;2022-07-30T09:31:13;2.13;;;1.40;;
4432;SDS011;2229;48.708;9.706;2022-07-30T09:34:00;4.43;;;1.10;;
4432;SDS011;2229;48.708;9.706;2022-07-30T09:37:02;5.50;;;2.13;;
4432;SDS011;2229;48.708;9.706;2022-07-30T09:39:52;2.93;;;1.90;;
4432;SDS011;2229;48.708;9.706;2022-07-30T09:42:24;3.73;;;2.27;;
4432;SDS011;2229;48.708;9.706;2022-07-30T09:45:04;2.10;;;1.20;;
4432;SDS011;2229;48.708;9.706;2022-07-30T09:47:32;1.80;;;1.43;;
4432;SDS011;2229;48.708;9.706;2022-07-30T09:50:04;3.20;;;1.97;;
4432;SDS011;2229;48.708;9.706;2022-07-30T09:52:31;2.90;;;1.63;;
4432;SDS011;2229;48.708;9.706;2022-07-30T09:54:58;2.77;;;1.10;;
4432;SDS011;2229;48.708;9.706;2022-07-30T09:57:27;2.50;;;1.50;;
4432;SDS011;2229;48.708;9.706;2022-07-30T10:00:14;1.80;;;1.10;;
4432;SDS011;2229;48.708;9.706;2022-07-30T10:02:47;2.13;;;1.30;;
4432;SDS011;2229;48.708;9.706;2022-07-30T10:05:33;1.77;;;1.37;;
4432;SDS011;2229;48.708;9.706;2022-07-30T10:08:00;3.27;;;1.33;;
4432;SDS011;2229;48.708;9.706;2022-07-30T10:10:28;1.40;;;0.80;;
4432;SDS011;2229;48.708;9.706;2022-07-30T10:12:56;5.43;;;1.80;;
4432;SDS011;2229;48.708;9.706;2022-07-30T10:15:27;1.30;;;0.80;;
4432;SDS011;2229;48.708;9.706;2022-07-30T10:17:54;1.73;;;1.13;;
4432;SDS011;2229;48.708;9.706;2022-07-30T10:20:41;1.77;;;1.00;;
4432;SDS011;2229;48.708;9.706;2022-07-30T10:23:27;1.70;;;1.30;;
4432;SDS011;2229;48.708;9.706;2022-07-30T10:26:23;2.10;;;1.37;;
4432;SDS011;2229;48.708;9.706;2022-07-30T10:29:09;1.97;;;1.17;;
4432;SDS011;2229;48.708;9.706;2022-07-30T10:31:36;2.00;;;1.10;;
4432;SDS011;2229;48.708;9.706;2022-07-30T10:34:03;3.93;;;1.43;;
4432;SDS011;2229;48.708;9.706;2022-07-30T10:36:29;6.17;;;1.47;;
4432;SDS011;2229;48.708;9.706;2022-07-30T10:38:57;1.90;;;0.90;;
4432;SDS011;2229;48.708;9.706;2022-07-30T10:41:28;1.40;;;0.97;;
4432;SDS011;2229;48.708;9.706;2022-07-30T10:44:07;2.13;;;1.20;;
4432;SDS011;2229;48.708;9.706;2022-07-30T10:47:06;3.10;;;1.20;;
4432;SDS011;2229;48.708;9.706;2022-07-30T10:49:38;2.23;;;1.53;;
4432;SDS011;2229;48.708;9.706;2022-07-30T10:52:47;2.33;;;1.17;;
4432;SDS011;2229;48.708;9.706;2022-07-30T10:55:16;1.50;;;0.87;;
4432;SDS011;2229;48.708;9.706;2022-07-30T10:57:57;2.20;;;1.17;;
4432;SDS011;2229;48.708;9.706;2022-07-30T11:00:25;1.30;;;0.73;;
4432;SDS011;2229;48.708;9.706;2022-07-30T11:05:48;4.30;;;1.20;;
4432;SDS011;2229;48.708;9.706;2022-07-30T11:11:01;1.70;;;1.00;;
4432;SDS011;2229;48.708;9.706;2022-07-30T11:13:47;1.57;;;0.90;;
4432;SDS011;2229;48.708;9.706;2022-07-30T11:16:16;2.00;;;0.97;;
4432;SDS011;2229;48.708;9.706;2022-07-30T11:21:36;1.63;;;0.80;;
4432;SDS011;2229;48.708;9.706;2022-07-30T11:24:03;1.10;;;0.80;;
4432;SDS011;2229;48.708;9.706;2022-07-30T11:26:46;1.93;;;0.80;;
4432;SDS011;2229;48.708;9.706;2022-07-30T11:29:32;2.43;;;1.10;;
4432;SDS011;2229;48.708;9.706;2022-07-30T11:32:22;1.60;;;0.73;;
4432;SDS011;2229;48.708;9.706;2022-07-30T11:34:50;1.07;;;0.57;;
4432;SDS011;2229;48.708;9.706;2022-07-30T11:37:17;1.20;;;0.63;;
4432;SDS011;2229;48.708;9.706;2022-07-30T11:40:05;1.30;;;0.60;;
4432;SDS011;2229;48.708;9.706;2022-07-30T11:42:36;1.30;;;0.70;;
4432;SDS011;2229;48.708;9.706;2022-07-30T11:45:23;1.50;;;0.73;;
4432;SDS011;2229;48.708;9.706;2022-07-30T11:47:57;1.83;;;1.07;;
4432;SDS011;2229;48.708;9.706;2022-07-30T11:50:28;1.47;;;0.80;;
4432;SDS011;2229;48.708;9.706;2022-07-30T11:52:57;1.20;;;0.80;;
4432;SDS011;2229;48.708;9.706;2022-07-30T11:55:25;1.30;;;0.70;;
4432;SDS011;2229;48.708;9.706;2022-07-30T11:57:55;1.50;;;0.70;;
4432;SDS011;2229;48.708;9.706;2022-07-30T12:00:23;1.60;;;0.77;;
4432;SDS011;2229;48.708;9.706;2022-07-30T12:02:50;1.40;;;0.77;;
4432;SDS011;2229;48.708;9.706;2022-07-30T12:05:22;1.93;;;0.90;;
4432;SDS011;2229;48.708;9.706;2022-07-30T12:07:51;2.40;;;1.13;;
4432;SDS011;2229;48.708;9.706;2022-07-30T12:10:22;1.83;;;1.00;;
4432;SDS011;2229;48.708;9.706;2022-07-30T12:12:48;2.03;;;0.63;;
4432;SDS011;2229;48.708;9.706;2022-07-30T12:15:27;1.27;;;0.73;;
4432;SDS011;2229;48.708;9.706;2022-07-30T12:17:55;1.57;;;0.70;;
4432;SDS011;2229;48.708;9.706;2022-07-30T12:20:22;1.30;;;0.90;;
4432;SDS011;2229;48.708;9.706;2022-07-30T12:22:49;2.00;;;1.17;;
4432;SDS011;2229;48.708;9.706;2022-07-30T12:25:18;3.43;;;0.80;;
4432;SDS011;2229;48.708;9.706;2022-07-30T12:27:44;1.40;;;0.80;;
4432;SDS011;2229;48.708;9.706;2022-07-30T12:30:12;1.60;;;0.80;;
4432;SDS011;2229;48.708;9.706;2022-07-30T12:32:40;2.37;;;1.20;;
4432;SDS011;2229;48.708;9.706;2022-07-30T12:35:07;2.70;;;0.93;;
4432;SDS011;2229;48.708;9.706;2022-07-30T12:37:34;2.00;;;0.93;;
4432;SDS011;2229;48.708;9.706;2022-07-30T12:40:08;1.43;;;0.63;;
4432;SDS011;2229;48.708;9.706;2022-07-30T12:42:36;2.23;;;1.20;;
4432;SDS011;2229;48.708;9.706;2022-07-30T12:45:24;4.70;;;1.20;;
4432;SDS011;2229;48.708;9.706;2022-07-30T12:47:51;1.70;;;1.17;;
4432;SDS011;2229;48.708;9.706;2022-07-30T12:50:18;1.70;;;0.80;;
4432;SDS011;2229;48.708;9.706;2022-07-30T12:52:47;1.93;;;1.00;;
4432;SDS011;2229;48.708;9.706;2022-07-30T12:55:14;1.63;;;0.90;;
4432;SDS011;2229;48.708;9.706;2022-07-30T12:58:05;2.03;;;0.83;;
4432;SDS011;2229;48.708;9.706;2022-07-30T13:00:32;1.40;;;0.70;;
4432;SDS011;2229;48.708;9.706;2022-07-30T13:03:18;1.67;;;1.07;;
4432;SDS011;2229;48.708;9.706;2022-07-30T13:05:48;1.50;;;0.93;;
4432;SDS011;2229;48.708;9.706;2022-07-30T13:08:15;2.83;;;1.07;;
4432;SDS011;2229;48.708;9.706;2022-07-30T13:10:52;1.20;;;0.80;;
4432;SDS011;2229;48.708;9.706;2022-07-30T13:13:20;2.60;;;1.00;;
4432;SDS011;2229;48.708;9.706;2022-07-30T13:15:55;2.10;;;0.67;;
4432;SDS011;2229;48.708;9.706;2022-07-30T13:18:23;3.07;;;1.03;;
4432;SDS011;2229;48.708;9.706;2022-07-30T13:20:49;1.60;;;0.90;;
4432;SDS011;2229;48.708;9.706;2022-07-30T13:23:27;1.40;;;0.90;;
4432;SDS011;2229;48.708;9.706;2022-07-30T13:25:54;1.30;;;0.80;;
4432;SDS011;2229;48.708;9.706;2022-07-30T13:28:21;1.77;;;0.50;;
4432;SDS011;2229;48.708;9.706;2022-07-30T13:30:48;2.03;;;0.73;;
4432;SDS011;2229;48.708;9.706;2022-07-30T13:33:14;2.03;;;0.93;;
4432;SDS011;2229;48.708;9.706;2022-07-30T13:35:40;1.60;;;0.67;;
4432;SDS011;2229;48.708;9.706;2022-07-30T13:38:08;2.63;;;1.17;;
4432;SDS011;2229;48.708;9.706;2022-07-30T13:40:35;1.53;;;0.83;;
4432;SDS011;2229;48.708;9.706;2022-07-30T13:43:02;1.20;;;0.60;;
4432;SDS011;2229;48.708;9.706;2022-07-30T13:45:29;3.43;;;0.77;;
4432;SDS011;2229;48.708;9.706;2022-07-30T13:47:56;2.07;;;1.30;;
4432;SDS011;2229;48.708;9.706;2022-07-30T13:50:23;1.30;;;0.70;;
4432;SDS011;2229;48.708;9.706;2022-07-30T13:52:50;1.77;;;0.80;;
4432;SDS011;2229;48.708;9.706;2022-07-30T13:55:17;1.50;;;0.83;;
4432;SDS011;2229;48.708;9.706;2022-07-30T13:57:43;1.20;;;0.60;;
4432;SDS011;2229;48.708;9.706;2022-07-30T14:00:10;1.97;;;0.83;;
4432;SDS011;2229;48.708;9.706;2022-07-30T14:02:38;2.80;;;0.77;;
4432;SDS011;2229;48.708;9.706;2022-07-30T14:05:08;1.27;;;0.80;;
4432;SDS011;2229;48.708;9.706;2022-07-30T14:07:34;1.10;;;0.60;;
4432;SDS011;2229;48.708;9.706;2022-07-30T14:10:02;1.10;;;0.50;;
4432;SDS011;2229;48.708;9.706;2022-07-30T14:12:29;1.77;;;0.60;;
4432;SDS011;2229;48.708;9.706;2022-07-30T14:14:55;1.30;;;0.70;;
4432;SDS011;2229;48.708;9.706;2022-07-30T14:17:22;1.40;;;0.80;;
4432;SDS011;2229;48.708;9.706;2022-07-30T14:19:49;1.33;;;0.70;;
4432;SDS011;2229;48.708;9.706;2022-07-30T14:22:18;1.40;;;0.80;;
4432;SDS011;2229;48.708;9.706;2022-07-30T14:24:45;2.70;;;0.70;;
4432;SDS011;2229;48.708;9.706;2022-07-30T14:27:12;1.40;;;0.60;;
4432;SDS011;2229;48.708;9.706;2022-07-30T14:29:38;1.27;;;0.83;;
4432;SDS011;2229;48.708;9.706;2022-07-30T14:32:05;1.30;;;0.80;;
4432;SDS011;2229;48.708;9.706;2022-07-30T14:34:31;1.30;;;0.70;;
4432;SDS011;2229;48.708;9.706;2022-07-30T14:37:00;1.80;;;1.07;;
4432;SDS011;2229;48.708;9.706;2022-07-30T14:39:27;3.37;;;0.60;;
4432;SDS011;2229;48.708;9.706;2022-07-30T14:41:54;1.30;;;0.63;;
4432;SDS011;2229;48.708;9.706;2022-07-30T14:44:20;1.20;;;0.60;;
4432;SDS011;2229;48.708;9.706;2022-07-30T14:46:47;4.00;;;0.50;;
4432;SDS011;2229;48.708;9.706;2022-07-30T14:49:13;1.67;;;0.57;;
4432;SDS011;2229;48.708;9.706;2022-07-30T14:51:40;1.10;;;0.53;;
4432;SDS011;2229;48.708;9.706;2022-07-30T14:54:07;1.20;;;0.80;;
4432;SDS011;2229;48.708;9.706;2022-07-30T14:56:36;1.60;;;0.70;;
4432;SDS011;2229;48.708;9.706;2022-07-30T14:59:02;2.77;;;1.10;;
4432;SDS011;2229;48.708;9.706;2022-07-30T15:01:29;1.20;;;0.60;;
4432;SDS011;2229;48.708;9.706;2022-07-30T15:03:55;1.70;;;0.83;;
4432;SDS011;2229;48.708;9.706;2022-07-30T15:06:22;1.77;;;0.70;;
4432;SDS011;2229;48.708;9.706;2022-07-30T15:08:48;1.20;;;0.70;;
4432;SDS011;2229;48.708;9.706;2022-07-30T15:11:15;1.30;;;0.80;;
4432;SDS011;2229;48.708;9.706;2022-07-30T15:13:42;1.27;;;0.60;;
4432;SDS011;2229;48.708;9.706;2022-07-30T15:16:08;1.10;;;0.70;;
4432;SDS011;2229;48.708;9.706;2022-07-30T15:18:35;2.70;;;1.10;;
4432;SDS011;2229;48.708;9.706;2022-07-30T15:21:02;1.63;;;1.27;;
4432;SDS011;2229;48.708;9.706;2022-07-30T15:23:28;1.23;;;0.70;;
4432;SDS011;2229;48.708;9.706;2022-07-30T15:25:55;1.20;;;0.70;;
4432;SDS011;2229;48.708;9.706;2022-07-30T15:28:22;2.80;;;0.73;;
4432;SDS011;2229;48.708;9.706;2022-07-30T15:30:48;1.50;;;0.63;;
4432;SDS011;2229;48.708;9.706;2022-07-30T15:33:15;1.40;;;0.70;;
4432;SDS011;2229;48.708;9.706;2022-07-30T15:35:41;1.50;;;0.80;;
4432;SDS011;2229;48.708;9.706;2022-07-30T15:38:09;1.50;;;0.80;;
4432;SDS011;2229;48.708;9.706;2022-07-30T15:40:56;1.07;;;0.53;;
4432;SDS011;2229;48.708;9.706;2022-07-30T15:43:23;2.03;;;0.80;;
4432;SDS011;2229;48.708;9.706;2022-07-30T15:45:49;1.90;;;1.10;;
4432;SDS011;2229;48.708;9.706;2022-07-30T15:48:16;2.43;;;1.40;;